Time;durP1;ratioP1;P1;durP2;ratioP2;P2;SDS_P1;SDS_P2;PMS_P1;PMS_P2;Temp;Humidity;BMP_temperature;BMP_pressure;BME280_temperature;BME280_humidity;BME280_pressure;Samples;Min_cycle;Max_cycle;Signal;HPM_P1;HPM_P2
2024/02/07 00:02:17;;;;;;;10.30;5.20;;;;;;;7.18;96.04;97496.63;5046019;28;20441;-74
2024/02/07 00:04:42;;;;;;;8.93;4.70;;;;;;;7.14;95.90;97481.50;5050624;28;20021;-73
2024/02/07 00:07:08;;;;;;;8.80;5.07;;;;;;;7.10;96.00;97494.47;5050723;28;20047;-75
2024/02/07 00:09:33;;;;;;;11.05;5.00;;;;;;;7.04;96.67;97476.94;5031786;28;20102;-74
2024/02/07 00:11:59;;;;;;;18.20;5.20;;;;;;;7.35;95.35;97497.22;5045714;28;20036;-74
2024/02/07 00:14:24;;;;;;;9.32;4.93;;;;;;;7.28;95.46;97493.19;5051514;28;20382;-74
2024/02/07 00:16:49;;;;;;;13.05;4.80;;;;;;;7.19;96.24;97487.59;5049907;28;20033;-74
2024/02/07 00:19:15;;;;;;;8.95;5.07;;;;;;;7.15;95.78;97470.59;5045915;28;20037;-74
2024/02/07 00:21:40;;;;;;;12.60;5.85;;;;;;;7.17;96.36;97473.00;5026950;28;20033;-74
2024/02/07 00:24:06;;;;;;;10.20;5.18;;;;;;;7.16;96.53;97466.09;5047422;28;20051;-74
2024/02/07 00:26:32;;;;;;;10.43;4.25;;;;;;;7.08;97.19;97448.81;5044943;28;20033;-74
2024/02/07 00:28:57;;;;;;;11.73;5.20;;;;;;;7.12;96.70;97447.25;5048658;28;20112;-74
2024/02/07 00:31:22;;;;;;;15.25;5.88;;;;;;;7.04;97.15;97437.13;5046209;28;20056;-74
2024/02/07 00:33:48;;;;;;;16.95;5.50;;;;;;;7.08;97.24;97446.16;5048244;28;20029;-74
2024/02/07 00:36:13;;;;;;;12.07;5.82;;;;;;;7.06;98.01;97431.56;5047387;28;20052;-76
2024/02/07 00:38:39;;;;;;;8.02;4.80;;;;;;;7.06;96.89;97444.81;5046881;28;20029;-75
2024/02/07 00:41:04;;;;;;;14.05;6.28;;;;;;;7.06;97.11;97432.38;5047556;28;20041;-75
2024/02/07 00:43:32;;;;;;;13.60;6.57;;;;;;;7.06;98.19;97440.31;5046901;28;20025;-75
2024/02/07 00:45:58;;;;;;;13.95;5.95;;;;;;;7.10;97.48;97424.72;5048775;28;20494;-76
2024/02/07 00:48:23;;;;;;;11.63;4.88;;;;;;;7.10;97.10;97417.53;5048366;28;20048;-75
2024/02/07 00:50:48;;;;;;;15.60;6.10;;;;;;;7.12;96.78;97422.59;5049427;28;20055;-76
2024/02/07 00:53:14;;;;;;;18.50;5.53;;;;;;;7.06;96.84;97397.06;5049890;28;20037;-76
2024/02/07 00:55:39;;;;;;;12.68;5.80;;;;;;;7.08;96.94;97413.53;5046863;28;20025;-75
2024/02/07 00:58:06;;;;;;;7.57;5.45;;;;;;;7.04;97.39;97405.31;5051339;28;20039;-74
2024/02/07 01:00:32;;;;;;;10.32;5.82;;;;;;;7.04;97.90;97407.16;5050190;28;20546;-74
2024/02/07 01:02:57;;;;;;;9.75;5.82;;;;;;;7.05;98.27;97409.56;5043756;28;20061;-74
2024/02/07 01:05:23;;;;;;;10.65;5.97;;;;;;;7.03;97.98;97409.03;5044854;28;20079;-74
2024/02/07 01:07:48;;;;;;;12.07;5.85;;;;;;;7.12;97.27;97410.09;5050029;28;20055;-74
2024/02/07 01:10:14;;;;;;;12.77;5.82;;;;;;;7.01;97.90;97410.34;5045772;28;20032;-75
2024/02/07 01:12:39;;;;;;;14.85;6.22;;;;;;;6.98;98.00;97409.00;5049064;28;20045;-75
2024/02/07 01:15:06;;;;;;;18.17;6.70;;;;;;;7.02;98.30;97412.72;5048383;28;20028;-77
2024/02/07 01:17:32;;;;;;;12.38;6.57;;;;;;;6.99;98.75;97412.47;5049524;28;20029;-76
2024/02/07 01:19:57;;;;;;;15.82;6.03;;;;;;;6.96;98.42;97400.50;5046222;28;20123;-77
2024/02/07 01:22:22;;;;;;;13.52;5.32;;;;;;;6.94;98.15;97393.88;5048014;28;20048;-77
2024/02/07 01:24:48;;;;;;;12.90;5.95;;;;;;;6.90;98.25;97387.50;5049937;28;20029;-77
2024/02/07 01:27:14;;;;;;;7.00;4.30;;;;;;;6.94;98.88;97407.94;5047021;28;20025;-77
2024/02/07 01:29:39;;;;;;;11.65;5.22;;;;;;;6.88;98.87;97395.69;5047910;28;20024;-76
2024/02/07 01:32:05;;;;;;;14.13;5.90;;;;;;;6.88;99.15;97398.34;5043066;28;20429;-77
2024/02/07 01:34:31;;;;;;;8.50;4.72;;;;;;;6.91;99.27;97389.88;5049111;28;20432;-78
2024/02/07 01:36:57;;;;;;;8.82;5.10;;;;;;;6.90;99.63;97388.31;5052108;28;20051;-77
2024/02/07 01:39:23;;;;;;;12.65;5.45;;;;;;;6.84;99.31;97373.41;5034937;28;20521;-75
2024/02/07 01:41:57;;;;;;;10.05;5.15;;;;;;;6.91;99.70;97389.06;5051787;28;20043;-77
2024/02/07 01:44:24;;;;;;;13.50;5.50;;;;;;;6.94;99.49;97386.72;5049091;28;20021;-77
2024/02/07 01:46:50;;;;;;;12.00;5.32;;;;;;;6.86;99.65;97366.00;5053424;28;20029;-77
2024/02/07 01:49:15;;;;;;;11.43;5.20;;;;;;;6.87;99.99;97356.19;5051977;28;20090;-76
2024/02/07 01:51:42;;;;;;;10.43;4.60;;;;;;;6.88;99.71;97363.88;5054973;28;20036;-77
2024/02/07 01:54:08;;;;;;;9.30;5.05;;;;;;;6.82;100.00;97354.31;5052274;28;20021;-76
2024/02/07 01:56:34;;;;;;;10.85;6.47;;;;;;;6.85;100.00;97345.84;5054348;28;20062;-78
2024/02/07 01:59:04;;;;;;;9.13;6.00;;;;;;;6.89;100.00;97356.72;5051835;28;20049;-76
2024/02/07 02:01:32;;;;;;;15.57;6.78;;;;;;;6.90;100.00;97340.56;5046886;28;20036;-76
2024/02/07 02:03:58;;;;;;;11.15;5.80;;;;;;;6.80;100.00;97345.81;5048727;28;20025;-76
2024/02/07 02:06:23;;;;;;;17.63;7.07;;;;;;;6.82;99.78;97331.25;5050862;28;20556;-75
2024/02/07 02:08:49;;;;;;;13.40;5.53;;;;;;;6.80;100.00;97314.00;5049791;28;20037;-76
2024/02/07 02:11:21;;;;;;;12.98;6.57;;;;;;;6.88;99.93;97328.63;5045249;28;20079;-74
2024/02/07 02:13:46;;;;;;;9.27;6.43;;;;;;;6.90;100.00;97322.00;5048516;28;20021;-75
2024/02/07 02:16:12;;;;;;;11.13;5.72;;;;;;;6.89;100.00;97324.91;5049293;28;20527;-75
2024/02/07 02:18:37;;;;;;;14.80;5.72;;;;;;;6.80;100.00;97306.06;5049334;28;20029;-75
2024/02/07 02:21:06;;;;;;;13.30;5.18;;;;;;;6.81;100.00;97310.31;4994607;28;20524;-75
2024/02/07 02:24:02;;;;;;;9.20;6.75;;;;;;;6.84;100.00;97306.34;5044331;28;20033;-75
2024/02/07 02:26:53;;;;;;;8.32;5.30;;;;;;;6.86;100.00;97285.66;5025925;28;20020;-74
2024/02/07 02:29:36;;;;;;;14.27;5.97;;;;;;;6.77;100.00;97283.50;5048772;28;20056;-76
2024/02/07 02:32:03;;;;;;;13.00;5.72;;;;;;;6.82;100.00;97295.97;5045047;28;20063;-75
2024/02/07 02:34:31;;;;;;;14.40;5.70;;;;;;;6.79;100.00;97291.22;5049210;28;20402;-76
2024/02/07 02:36:58;;;;;;;12.85;6.15;;;;;;;6.79;100.00;97288.56;5048735;28;20040;-76
2024/02/07 02:39:31;;;;;;;11.65;6.57;;;;;;;6.83;100.00;97276.38;5049946;28;20029;-75
2024/02/07 02:41:57;;;;;;;12.38;5.70;;;;;;;6.78;100.00;97268.41;5047032;28;20605;-76
2024/02/07 02:44:23;;;;;;;12.75;4.35;;;;;;;6.82;100.00;97272.91;5050232;28;20036;-75
2024/02/07 02:46:49;;;;;;;9.68;5.35;;;;;;;6.83;100.00;97271.06;5044668;28;20028;-76
2024/02/07 02:49:14;;;;;;;10.80;6.60;;;;;;;6.80;100.00;97253.03;5046766;28;20041;-75
2024/02/07 02:51:40;;;;;;;14.98;6.45;;;;;;;6.80;100.00;97271.59;5048263;28;20039;-75
2024/02/07 02:54:06;;;;;;;7.63;4.88;;;;;;;6.98;100.00;97267.63;5050937;28;20029;-74
2024/02/07 02:56:31;;;;;;;7.43;5.15;;;;;;;6.82;100.00;97261.50;5049157;28;20036;-75
2024/02/07 02:58:58;;;;;;;10.18;5.65;;;;;;;6.78;100.00;97239.22;5048499;28;20029;-75
2024/02/07 03:01:28;;;;;;;9.35;4.93;;;;;;;6.80;100.00;97251.16;5049722;28;20039;-75
2024/02/07 03:03:54;;;;;;;6.93;4.90;;;;;;;6.85;100.00;97253.03;5048800;28;20044;-76
2024/02/07 03:06:28;;;;;;;11.68;5.40;;;;;;;6.88;100.00;97249.06;5049253;28;20032;-75
2024/02/07 03:09:06;;;;;;;10.30;4.68;;;;;;;6.87;100.00;97247.47;5051154;28;20501;-75
2024/02/07 03:11:32;;;;;;;7.50;4.78;;;;;;;6.82;100.00;97250.91;5045243;28;20489;-75
2024/02/07 03:13:57;;;;;;;10.85;4.82;;;;;;;6.83;100.00;97233.94;5052534;28;20020;-76
2024/02/07 03:16:22;;;;;;;6.88;3.97;;;;;;;6.87;100.00;97242.97;5048886;28;20021;-76
2024/02/07 03:18:48;;;;;;;5.85;4.20;;;;;;;6.91;100.00;97227.31;5050984;28;20405;-76
2024/02/07 03:21:13;;;;;;;11.43;5.35;;;;;;;6.86;100.00;97225.44;5047327;28;20032;-75
2024/02/07 03:23:38;;;;;;;10.57;5.47;;;;;;;6.96;100.00;97228.13;5047754;28;20056;-76
2024/02/07 03:26:04;;;;;;;9.02;5.10;;;;;;;6.91;100.00;97237.91;5049749;28;20060;-75
2024/02/07 03:28:31;;;;;;;8.10;5.63;;;;;;;6.89;100.00;97232.06;5052100;28;20029;-75
2024/02/07 03:30:57;;;;;;;8.52;5.35;;;;;;;6.91;100.00;97233.41;5048883;28;20025;-76
2024/02/07 03:33:25;;;;;;;6.30;4.53;;;;;;;6.93;100.00;97243.75;5031535;28;20078;-76
2024/02/07 03:35:50;;;;;;;7.07;4.97;;;;;;;6.96;100.00;97238.72;5051159;28;20535;-76
2024/02/07 03:38:16;;;;;;;10.02;4.65;;;;;;;6.98;100.00;97233.94;5051170;28;20473;-76
2024/02/07 03:40:42;;;;;;;9.70;4.68;;;;;;;6.95;100.00;97250.38;5046449;28;20029;-76
2024/02/07 03:43:09;;;;;;;9.07;5.30;;;;;;;7.04;100.00;97246.16;5039597;28;20070;-76
2024/02/07 03:45:34;;;;;;;10.77;4.35;;;;;;;7.06;100.00;97253.84;5046211;28;20036;-76
2024/02/07 03:48:00;;;;;;;7.93;4.00;;;;;;;6.90;100.00;97229.19;5047098;28;20037;-75
2024/02/07 03:50:27;;;;;;;6.63;4.63;;;;;;;6.98;100.00;97233.94;5049274;28;20037;-76
2024/02/07 03:52:53;;;;;;;6.43;4.85;;;;;;;7.01;100.00;97251.97;5052955;28;20066;-75
2024/02/07 03:55:18;;;;;;;8.73;4.30;;;;;;;7.05;100.00;97254.91;5048111;28;20029;-76
2024/02/07 03:57:44;;;;;;;7.72;4.65;;;;;;;7.04;100.00;97242.69;5047787;28;20032;-76
2024/02/07 04:00:15;;;;;;;8.10;4.80;;;;;;;7.10;100.00;97245.09;5049835;28;20024;-76
2024/02/07 04:02:44;;;;;;;8.10;4.03;;;;;;;7.10;100.00;97268.19;5028062;28;20620;-76
2024/02/07 04:05:10;;;;;;;5.10;3.92;;;;;;;7.20;100.00;97268.97;5048684;28;20041;-75
2024/02/07 04:07:36;;;;;;;7.82;4.15;;;;;;;7.20;100.00;97281.44;5044045;28;20029;-75
2024/02/07 04:10:03;;;;;;;8.35;3.38;;;;;;;7.19;100.00;97296.56;5048419;28;20081;-76
2024/02/07 05:17:23;;;;;;;0.77;0.40;;;;;;;6.36;95.13;97410.81;5050499;28;20409;-75
2024/02/07 05:19:49;;;;;;;0.30;0.30;;;;;;;5.98;94.20;97404.75;5052179;28;20143;-75
2024/02/07 05:22:18;;;;;;;0.95;0.35;;;;;;;6.24;95.12;97412.88;5045569;28;20029;-74
2024/02/07 05:24:46;;;;;;;0.30;0.30;;;;;;;6.10;94.71;97406.41;5046647;28;20119;-74
2024/02/07 05:27:14;;;;;;;0.40;0.40;;;;;;;6.21;94.23;97432.72;5051082;28;20470;-74
2024/02/07 05:29:40;;;;;;;1.15;0.50;;;;;;;6.00;93.46;97431.81;5052124;28;20119;-75
2024/02/07 05:32:06;;;;;;;0.40;0.40;;;;;;;5.86;95.07;97425.34;5050876;28;20108;-75
2024/02/07 05:34:33;;;;;;;0.32;0.32;;;;;;;5.54;94.65;97437.72;5053784;28;20041;-74
2024/02/07 05:36:58;;;;;;;0.80;0.20;;;;;;;6.00;94.06;97442.41;5052104;28;20107;-74
2024/02/07 05:39:26;;;;;;;2.80;0.63;;;;;;;6.07;92.63;97439.53;5055150;28;20035;-74
2024/02/07 05:41:51;;;;;;;0.50;0.35;;;;;;;5.84;92.63;97437.22;5050108;28;20142;-74
2024/02/07 05:44:17;;;;;;;0.20;0.20;;;;;;;5.82;92.07;97437.44;5047927;28;20445;-74
2024/02/07 05:46:42;;;;;;;0.20;0.20;;;;;;;5.85;92.24;97446.78;5049064;28;20033;-74
2024/02/07 05:49:08;;;;;;;1.65;0.25;;;;;;;5.73;91.01;97452.19;5052790;28;20090;-74
2024/02/07 05:51:34;;;;;;;0.25;0.25;;;;;;;5.71;91.89;97466.72;5033358;28;20378;-74
2024/02/07 05:54:00;;;;;;;0.52;0.40;;;;;;;5.25;90.14;97462.81;5055331;28;20165;-74
2024/02/07 05:56:25;;;;;;;1.15;0.40;;;;;;;5.81;92.00;97475.56;5049131;28;20434;-74
2024/02/07 05:58:51;;;;;;;0.45;0.35;;;;;;;5.72;92.40;97471.75;5050260;28;20033;-75
2024/02/07 06:01:21;;;;;;;0.30;0.30;;;;;;;5.76;92.14;97467.59;5052024;28;20389;-74
2024/02/07 06:03:50;;;;;;;0.85;0.73;;;;;;;5.73;92.68;97489.25;5048029;28;20076;-74
2024/02/07 06:06:24;;;;;;;0.88;0.45;;;;;;;5.88;91.72;97492.06;5049718;28;20035;-74
2024/02/07 06:08:51;;;;;;;0.65;0.50;;;;;;;5.60;91.96;97500.25;5052035;28;20051;-74
2024/02/07 06:11:17;;;;;;;1.27;0.40;;;;;;;5.57;92.93;97495.44;5052014;28;20036;-74
2024/02/07 06:13:43;;;;;;;2.05;0.70;;;;;;;5.61;92.76;97507.16;5053465;28;20025;-75
2024/02/07 06:16:08;;;;;;;6.85;0.98;;;;;;;5.47;93.69;97513.88;5048591;28;20529;-74
2024/02/07 06:18:35;;;;;;;1.42;0.50;;;;;;;5.43;91.27;97526.00;5055523;28;20392;-74
2024/02/07 06:21:04;;;;;;;1.17;0.55;;;;;;;5.68;91.78;97518.31;5066086;28;20029;-74
2024/02/07 06:23:29;;;;;;;0.68;0.65;;;;;;;5.30;92.02;97518.44;5052796;28;20033;-74
2024/02/07 06:25:54;;;;;;;1.63;0.50;;;;;;;4.69;92.74;97514.22;5052358;28;20047;-74
2024/02/07 06:28:20;;;;;;;0.75;0.60;;;;;;;5.46;93.12;97527.34;5052605;28;20032;-74
2024/02/07 06:30:45;;;;;;;1.10;0.90;;;;;;;5.20;91.01;97527.03;5064901;28;20047;-74
2024/02/07 06:33:11;;;;;;;0.52;0.43;;;;;;;5.22;91.64;97526.81;5063200;28;20036;-74
2024/02/07 06:35:36;;;;;;;2.30;0.85;;;;;;;5.62;91.23;97537.03;5056387;28;20029;-74
2024/02/07 06:38:02;;;;;;;0.77;0.77;;;;;;;5.51;91.99;97532.69;5060585;28;20378;-74
2024/02/07 06:40:30;;;;;;;1.45;0.70;;;;;;;5.35;91.60;97547.59;5061299;28;20579;-74
2024/02/07 06:42:56;;;;;;;1.77;0.90;;;;;;;5.39;91.31;97542.59;5052107;28;20028;-74
2024/02/07 06:45:22;;;;;;;1.25;0.98;;;;;;;5.33;92.04;97553.13;5059659;28;20040;-74
2024/02/07 06:47:47;;;;;;;0.70;0.55;;;;;;;5.13;90.77;97555.50;5056661;28;20036;-74
2024/02/07 06:50:12;;;;;;;2.30;1.00;;;;;;;4.90;92.35;97552.28;5049975;28;20025;-75
2024/02/07 06:52:39;;;;;;;0.68;0.68;;;;;;;5.25;91.62;97561.50;5052456;28;20025;-74
2024/02/07 06:55:05;;;;;;;0.90;0.60;;;;;;;4.93;91.71;97567.69;5052395;28;20032;-74
2024/02/07 06:57:30;;;;;;;3.25;0.70;;;;;;;5.38;91.98;97573.56;5053634;28;20028;-75
2024/02/07 06:59:56;;;;;;;1.75;0.50;;;;;;;5.09;91.00;97572.91;5052992;28;20079;-75
2024/02/07 07:02:21;;;;;;;0.65;0.60;;;;;;;4.86;90.87;97580.25;5039301;28;20033;-81
2024/02/07 07:04:46;;;;;;;1.00;0.52;;;;;;;5.16;91.07;97578.03;5054733;28;20040;-75
2024/02/07 07:07:12;;;;;;;2.17;0.88;;;;;;;5.15;90.44;97582.53;5049002;28;20025;-76
2024/02/07 07:09:37;;;;;;;1.30;0.65;;;;;;;5.09;91.02;97578.19;5053502;28;20064;-75
2024/02/07 07:12:02;;;;;;;1.70;0.50;;;;;;;5.17;91.12;97582.28;5056431;28;20033;-75
2024/02/07 07:14:28;;;;;;;0.40;0.35;;;;;;;4.67;89.70;97581.56;5062370;28;20548;-75
2024/02/07 07:16:53;;;;;;;0.50;0.50;;;;;;;4.71;89.56;97585.31;5052257;28;20118;-75
2024/02/07 07:19:18;;;;;;;3.15;0.70;;;;;;;5.02;88.92;97584.72;5050087;28;20101;-75
2024/02/07 07:21:44;;;;;;;1.67;0.80;;;;;;;4.78;90.58;97583.31;5047059;28;20095;-76
2024/02/07 07:24:09;;;;;;;1.40;0.70;;;;;;;4.80;90.63;97589.16;5047816;28;20068;-75
2024/02/07 07:26:34;;;;;;;0.60;0.60;;;;;;;4.77;89.24;97594.91;5039611;28;20020;-76
2024/02/07 07:29:00;;;;;;;2.00;0.88;;;;;;;4.73;91.51;97597.25;5045257;28;20035;-76
2024/02/07 07:31:25;;;;;;;1.00;0.60;;;;;;;4.63;91.28;97606.88;5042399;28;20025;-76
2024/02/07 07:33:51;;;;;;;2.22;0.93;;;;;;;4.94;91.08;97603.63;5046462;28;20068;-76
2024/02/07 07:36:17;;;;;;;0.40;0.40;;;;;;;4.86;90.80;97610.13;5044126;28;20806;-76
2024/02/07 07:38:43;;;;;;;0.60;0.50;;;;;;;5.17;91.33;97601.59;5046454;28;20043;-76
2024/02/07 07:41:08;;;;;;;0.70;0.50;;;;;;;4.68;90.97;97610.38;5049773;28;20124;-76
2024/02/07 07:43:33;;;;;;;1.00;0.73;;;;;;;4.76;91.29;97625.06;5044272;28;20041;-76
2024/02/07 07:45:59;;;;;;;0.70;0.50;;;;;;;4.88;90.40;97621.28;5028722;28;20052;-76
2024/02/07 07:48:25;;;;;;;1.33;0.90;;;;;;;4.66;91.73;97625.69;5046230;28;20036;-75
2024/02/07 07:50:50;;;;;;;1.63;0.73;;;;;;;4.34;90.17;97622.81;5039364;28;20525;-75
2024/02/07 07:53:16;;;;;;;2.58;0.50;;;;;;;5.14;91.53;97628.53;5041441;28;20485;-75
2024/02/07 07:55:41;;;;;;;1.17;0.80;;;;;;;5.10;90.48;97629.25;5047280;28;20769;-77
2024/02/07 07:58:06;;;;;;;2.75;1.38;;;;;;;5.22;89.79;97622.81;5013441;28;20393;-76
2024/02/07 08:00:33;;;;;;;2.05;1.60;;;;;;;5.14;88.21;97643.59;5030169;28;20033;-76
2024/02/07 08:02:59;;;;;;;2.42;1.50;;;;;;;5.11;89.86;97641.44;5044317;28;20056;-77
2024/02/07 08:05:24;;;;;;;4.40;1.65;;;;;;;5.27;89.46;97646.69;5043201;28;20092;-77
2024/02/07 08:07:50;;;;;;;3.40;1.50;;;;;;;4.91;89.16;97647.25;5044702;28;20430;-75
2024/02/07 08:10:15;;;;;;;1.85;1.40;;;;;;;5.31;89.52;97639.88;5042843;28;20033;-76
2024/02/07 08:12:40;;;;;;;1.48;1.35;;;;;;;5.27;90.08;97632.66;5048554;28;20040;-76
2024/02/07 08:15:06;;;;;;;3.35;1.80;;;;;;;5.38;89.38;97623.00;5044691;28;20420;-76
2024/02/07 08:17:32;;;;;;;1.10;1.00;;;;;;;5.31;89.55;97633.78;5048028;28;20517;-76
2024/02/07 08:19:57;;;;;;;1.48;0.93;;;;;;;5.31;88.86;97636.41;5045112;28;20119;-76
2024/02/07 08:22:22;;;;;;;1.58;0.63;;;;;;;5.33;88.88;97635.13;5046495;28;20044;-76
2024/02/07 08:24:47;;;;;;;1.10;0.90;;;;;;;5.25;89.25;97624.16;5046647;28;20032;-76
2024/02/07 08:27:13;;;;;;;2.40;0.90;;;;;;;5.21;89.24;97631.00;5047809;28;20118;-76
2024/02/07 08:29:38;;;;;;;2.60;0.70;;;;;;;5.18;88.99;97628.81;5042117;28;20047;-76
2024/02/07 08:32:04;;;;;;;1.05;0.47;;;;;;;5.31;89.63;97644.34;5041453;28;20497;-76
2024/02/07 08:34:30;;;;;;;6.50;3.75;;;;;;;5.02;88.95;97640.25;5043089;28;20400;-76
2024/02/07 08:36:55;;;;;;;1.25;1.15;;;;;;;5.24;90.07;97647.16;4996049;28;20541;-75
2024/02/07 08:39:21;;;;;;;2.00;1.40;;;;;;;5.41;89.34;97633.13;5053187;28;20159;-75
2024/02/07 08:41:46;;;;;;;1.83;1.40;;;;;;;5.25;89.13;97634.75;5052605;28;20060;-76
2024/02/07 08:44:12;;;;;;;3.05;1.80;;;;;;;5.31;89.29;97641.69;5042958;28;20036;-76
2024/02/07 08:46:37;;;;;;;2.75;1.92;;;;;;;5.27;89.28;97635.31;5045479;28;21549;-75
2024/02/07 08:49:02;;;;;;;1.73;1.63;;;;;;;5.24;89.30;97646.41;5044244;28;20063;-76
2024/02/07 08:51:28;;;;;;;1.65;1.52;;;;;;;5.29;88.69;97641.97;5047675;28;20051;-75
2024/02/07 08:53:53;;;;;;;2.20;1.50;;;;;;;5.20;88.56;97651.34;5018220;28;20028;-76
2024/02/07 08:56:19;;;;;;;1.67;1.25;;;;;;;5.35;88.70;97656.06;5051014;28;20111;-76
2024/02/07 08:58:44;;;;;;;1.17;1.08;;;;;;;5.28;88.83;97647.50;5052023;28;20036;-75
2024/02/07 09:01:10;;;;;;;1.70;1.42;;;;;;;5.41;89.22;97647.16;5048260;28;20041;-75
2024/02/07 09:03:35;;;;;;;1.45;1.35;;;;;;;5.38;88.05;97646.81;5050583;28;20036;-75
2024/02/07 09:06:01;;;;;;;0.50;0.40;;;;;;;5.07;88.84;97637.66;5050288;28;20036;-75
2024/02/07 09:08:27;;;;;;;0.45;0.45;;;;;;;5.10;89.49;97656.50;5052903;28;20040;-75
2024/02/07 09:10:52;;;;;;;0.65;0.60;;;;;;;5.23;89.28;97656.16;5049374;28;20112;-75
2024/02/07 09:13:17;;;;;;;4.03;0.80;;;;;;;5.27;90.10;97654.63;5049588;28;20017;-76
2024/02/07 09:15:43;;;;;;;1.23;0.85;;;;;;;5.16;90.23;97662.66;5051289;28;20378;-75
2024/02/07 09:18:08;;;;;;;0.73;0.43;;;;;;;5.13;88.73;97660.50;5048925;28;20033;-76
2024/02/07 09:20:33;;;;;;;0.82;0.45;;;;;;;5.09;88.90;97664.66;5045892;28;20147;-77
2024/02/07 09:22:59;;;;;;;0.93;0.88;;;;;;;5.17;90.02;97669.56;5046280;28;20044;-75
2024/02/07 09:25:25;;;;;;;1.10;1.00;;;;;;;5.27;89.29;97667.84;5047902;28;20478;-75
2024/02/07 09:27:50;;;;;;;2.60;0.80;;;;;;;5.08;89.49;97655.94;5054741;28;20608;-75
2024/02/07 09:30:16;;;;;;;1.63;0.65;;;;;;;5.48;88.86;97676.06;5047058;28;20029;-76
2024/02/07 09:32:42;;;;;;;0.73;0.45;;;;;;;5.43;89.33;97671.53;5048214;28;20036;-75
2024/02/07 09:35:08;;;;;;;2.72;0.70;;;;;;;5.38;89.29;97668.00;5050297;28;20474;-75
2024/02/07 09:37:33;;;;;;;0.60;0.60;;;;;;;5.21;89.63;97668.84;5051436;28;20043;-75
2024/02/07 09:39:59;;;;;;;2.75;0.40;;;;;;;5.55;89.50;97668.78;5052836;28;20505;-76
2024/02/07 09:42:25;;;;;;;1.23;1.13;;;;;;;5.03;89.93;97669.09;5048520;28;20098;-75
2024/02/07 09:44:51;;;;;;;2.08;0.60;;;;;;;5.17;90.32;97683.59;5049363;28;20029;-76
2024/02/07 09:47:19;;;;;;;0.88;0.70;;;;;;;5.29;90.07;97680.84;5049659;28;20028;-75
2024/02/07 09:49:46;;;;;;;1.35;1.25;;;;;;;5.35;89.32;97679.06;5041125;28;20032;-75
2024/02/07 09:52:14;;;;;;;1.50;0.60;;;;;;;5.25;89.37;97679.72;5049528;28;20047;-75
2024/02/07 09:54:42;;;;;;;1.23;0.50;;;;;;;5.35;90.02;97677.22;5048758;28;20033;-75
2024/02/07 09:57:08;;;;;;;1.30;0.50;;;;;;;5.23;89.47;97653.53;5049521;28;20115;-75
2024/02/07 09:59:36;;;;;;;0.70;0.50;;;;;;;5.37;89.62;97659.28;5042690;28;20434;-75
2024/02/07 10:02:04;;;;;;;2.22;0.73;;;;;;;5.54;88.96;97675.09;5045704;28;20500;-75
2024/02/07 10:04:36;;;;;;;2.85;1.00;;;;;;;5.36;88.62;97670.06;5038654;28;20394;-75
2024/02/07 10:07:01;;;;;;;2.20;0.52;;;;;;;5.00;89.65;97687.28;5039659;28;20029;-75
2024/02/07 10:09:30;;;;;;;1.65;0.60;;;;;;;5.27;90.65;97686.38;5050484;28;20082;-75
2024/02/07 10:11:55;;;;;;;1.90;1.38;;;;;;;4.76;88.35;97691.13;5045681;28;20186;-75
2024/02/07 10:14:22;;;;;;;4.20;1.60;;;;;;;4.17;90.23;97680.03;5043188;28;20505;-75
2024/02/07 10:16:48;;;;;;;5.90;3.45;;;;;;;4.14;91.70;97677.09;5046944;28;20517;-75
2024/02/07 10:19:13;;;;;;;4.05;1.83;;;;;;;4.98;92.87;97694.66;5051906;28;20036;-75
2024/02/07 10:21:39;;;;;;;3.10;1.38;;;;;;;5.01;91.61;97686.22;5050392;28;20381;-75
2024/02/07 10:24:05;;;;;;;1.92;1.05;;;;;;;5.44;91.06;97691.63;5048985;28;20029;-75
2024/02/07 10:26:32;;;;;;;1.73;1.20;;;;;;;5.20;90.26;97680.44;5047143;28;20025;-75
2024/02/07 10:29:01;;;;;;;1.73;1.38;;;;;;;5.49;89.68;97699.63;5048509;28;20039;-75
2024/02/07 10:31:27;;;;;;;3.20;1.25;;;;;;;5.46;89.33;97694.81;5046231;28;20029;-75
2024/02/07 10:33:54;;;;;;;2.78;2.13;;;;;;;5.62;89.30;97709.88;5051361;28;20107;-75
2024/02/07 10:36:22;;;;;;;5.65;1.83;;;;;;;5.50;89.12;97713.69;5049043;28;20061;-75
2024/02/07 10:38:48;;;;;;;9.20;2.30;;;;;;;5.56;89.19;97716.16;5047103;28;20032;-75
2024/02/07 10:41:13;;;;;;;10.85;4.85;;;;;;;5.52;88.36;97717.69;5046098;28;20041;-75
2024/02/07 10:43:38;;;;;;;5.72;3.20;;;;;;;5.41;88.72;97709.84;5044342;28;20032;-75
2024/02/07 10:46:08;;;;;;;4.88;3.63;;;;;;;5.56;88.95;97736.50;5049046;28;20043;-75
2024/02/07 10:48:34;;;;;;;8.77;3.85;;;;;;;5.61;88.41;97740.06;5049233;28;20119;-75
2024/02/07 10:50:59;;;;;;;5.30;3.10;;;;;;;5.80;88.66;97737.91;5043134;28;20205;-75
2024/02/07 10:53:31;;;;;;;7.53;3.08;;;;;;;5.23;88.74;97732.06;5045553;28;20029;-75
2024/02/07 10:55:58;;;;;;;8.68;2.83;;;;;;;5.40;90.03;97738.13;5049279;28;20044;-75
2024/02/07 10:58:25;;;;;;;5.50;2.40;;;;;;;5.57;89.06;97723.03;5047976;28;20053;-75
2024/02/07 11:00:52;;;;;;;6.10;3.00;;;;;;;5.50;88.47;97717.13;5048688;28;20067;-75
2024/02/07 11:03:20;;;;;;;5.80;2.78;;;;;;;5.27;89.55;97727.88;5047615;28;20037;-75
2024/02/07 11:05:49;;;;;;;2.92;2.38;;;;;;;5.48;88.72;97723.72;5039657;28;20033;-75
2024/02/07 11:08:16;;;;;;;5.80;2.40;;;;;;;5.52;88.44;97722.19;5043956;28;20375;-76
2024/02/07 11:10:42;;;;;;;8.00;3.15;;;;;;;5.63;88.08;97713.34;5045468;28;20029;-75
2024/02/07 11:13:11;;;;;;;5.05;2.67;;;;;;;5.63;88.11;97711.50;5050594;28;20082;-76
2024/02/07 11:15:37;;;;;;;14.70;2.45;;;;;;;5.53;87.61;97703.41;5043405;28;20101;-76
2024/02/07 11:18:05;;;;;;;5.90;2.40;;;;;;;5.71;87.73;97697.81;5050977;28;20032;-76
2024/02/07 11:20:30;;;;;;;11.00;3.25;;;;;;;5.60;87.94;97703.22;5029217;28;20048;-75
2024/02/07 11:23:00;;;;;;;13.95;2.75;;;;;;;5.20;87.45;97701.59;5048104;28;20029;-76
2024/02/07 11:25:26;;;;;;;7.93;3.40;;;;;;;5.66;88.31;97697.75;5045727;28;20124;-75
2024/02/07 11:27:53;;;;;;;7.75;2.88;;;;;;;5.10;87.92;97696.16;5048988;28;20524;-76
2024/02/07 11:30:19;;;;;;;7.60;3.13;;;;;;;5.12;87.66;97691.44;5043339;28;20391;-76
2024/02/07 11:32:48;;;;;;;4.05;3.35;;;;;;;5.81;88.86;97697.94;5038803;28;20030;-76
2024/02/07 11:35:13;;;;;;;9.05;2.95;;;;;;;5.73;87.38;97692.28;5044845;28;20029;-75
2024/02/07 11:37:39;;;;;;;9.48;2.55;;;;;;;5.73;88.21;97697.56;5046696;28;20032;-75
2024/02/07 11:40:06;;;;;;;8.18;2.95;;;;;;;5.75;87.84;97698.94;5048404;28;20394;-75
2024/02/07 11:42:37;;;;;;;10.05;3.00;;;;;;;5.47;88.06;97699.09;5045515;28;20037;-75
2024/02/07 11:45:03;;;;;;;5.43;2.85;;;;;;;5.65;87.75;97706.75;5049820;28;20074;-76
2024/02/07 11:47:32;;;;;;;9.00;3.17;;;;;;;5.55;88.04;97703.94;5051362;28;20037;-75
2024/02/07 11:50:02;;;;;;;9.63;2.75;;;;;;;5.38;88.69;97708.47;5047860;28;20033;-76
2024/02/07 11:52:31;;;;;;;14.07;4.43;;;;;;;5.41;88.99;97725.72;5050681;28;20029;-75
2024/02/07 11:55:07;;;;;;;7.50;2.67;;;;;;;5.30;88.38;97700.97;5047788;28;20082;-75
2024/02/07 11:57:33;;;;;;;9.52;3.00;;;;;;;5.44;88.20;97688.97;5058518;28;20044;-76
2024/02/07 12:00:03;;;;;;;11.60;4.18;;;;;;;5.52;87.75;97688.59;5053606;28;20016;-76
2024/02/07 12:02:28;;;;;;;14.27;3.28;;;;;;;5.43;88.10;97686.59;5058760;28;20031;-75
2024/02/07 12:04:55;;;;;;;7.20;3.00;;;;;;;5.54;87.45;97683.03;5052905;28;20401;-76
2024/02/07 12:07:20;;;;;;;7.05;2.72;;;;;;;5.41;87.36;97681.53;5052478;28;20088;-76
2024/02/07 12:09:46;;;;;;;5.55;2.53;;;;;;;5.62;87.66;97695.84;5051534;28;20108;-76
2024/02/07 12:12:15;;;;;;;9.75;2.63;;;;;;;5.54;87.23;97704.19;5055152;28;20155;-76
2024/02/07 12:14:41;;;;;;;10.40;3.10;;;;;;;5.54;87.38;97699.72;5053262;28;20526;-75
2024/02/07 12:17:08;;;;;;;11.75;2.60;;;;;;;5.56;87.32;97694.97;5039565;28;20039;-76
2024/02/07 12:19:35;;;;;;;11.70;2.85;;;;;;;5.65;88.13;97695.34;5052766;28;20045;-75
2024/02/07 12:22:02;;;;;;;4.78;2.45;;;;;;;5.62;87.24;97707.22;5049046;28;20033;-75
2024/02/07 12:24:29;;;;;;;5.38;3.03;;;;;;;5.69;86.91;97707.06;5050579;28;20486;-78
2024/02/07 12:27:06;;;;;;;11.75;2.97;;;;;;;5.73;86.88;97702.88;5056325;28;20551;-78
2024/02/07 12:29:31;;;;;;;10.55;2.70;;;;;;;5.63;87.03;97710.69;5049770;28;20412;-76
2024/02/07 12:32:00;;;;;;;11.98;3.28;;;;;;;5.33;86.04;97717.13;5047504;28;20017;-76
2024/02/07 12:34:25;;;;;;;9.35;3.33;;;;;;;5.36;86.75;97696.53;5050192;28;20079;-76
2024/02/07 12:36:53;;;;;;;7.70;3.00;;;;;;;5.56;87.15;97697.63;5051663;28;20033;-77
2024/02/07 12:39:19;;;;;;;9.50;4.07;;;;;;;5.64;87.09;97699.03;5047822;28;20075;-76
2024/02/07 12:41:45;;;;;;;14.07;3.10;;;;;;;5.52;87.64;97687.78;5030731;28;20074;-76